sensor_id;sensor_type;location;lat;lon;timestamp;P1;durP1;ratioP1;P2;durP2;ratioP2
14292;SDS011;62290;59.420;17.842;2023-08-20T00:00:38;2.60;;;2.08;;
14292;SDS011;62290;59.420;17.842;2023-08-20T00:03:08;2.50;;;2.30;;
14292;SDS011;62290;59.420;17.842;2023-08-20T00:05:39;4.45;;;2.20;;
14292;SDS011;62290;59.420;17.842;2023-08-20T00:08:07;2.22;;;1.90;;
14292;SDS011;62290;59.420;17.842;2023-08-20T00:10:37;3.35;;;1.90;;
14292;SDS011;62290;59.420;17.842;2023-08-20T00:13:05;2.90;;;2.38;;
14292;SDS011;62290;59.420;17.842;2023-08-20T00:15:33;2.50;;;2.30;;
14292;SDS011;62290;59.420;17.842;2023-08-20T00:18:02;2.50;;;1.92;;
14292;SDS011;62290;59.420;17.842;2023-08-20T00:20:31;2.75;;;1.88;;
14292;SDS011;62290;59.420;17.842;2023-08-20T00:23:00;3.20;;;2.03;;
14292;SDS011;62290;59.420;17.842;2023-08-20T00:25:29;2.58;;;1.83;;
14292;SDS011;62290;59.420;17.842;2023-08-20T00:27:58;2.67;;;1.63;;
14292;SDS011;62290;59.420;17.842;2023-08-20T00:30:27;2.75;;;1.98;;
14292;SDS011;62290;59.420;17.842;2023-08-20T00:32:55;3.58;;;2.20;;
14292;SDS011;62290;59.420;17.842;2023-08-20T00:35:23;4.82;;;2.10;;
14292;SDS011;62290;59.420;17.842;2023-08-20T00:37:51;5.20;;;2.05;;
14292;SDS011;62290;59.420;17.842;2023-08-20T00:40:19;3.78;;;2.13;;
14292;SDS011;62290;59.420;17.842;2023-08-20T00:42:47;3.67;;;2.10;;
14292;SDS011;62290;59.420;17.842;2023-08-20T00:45:17;4.18;;;1.90;;
14292;SDS011;62290;59.420;17.842;2023-08-20T00:47:45;2.60;;;2.17;;
14292;SDS011;62290;59.420;17.842;2023-08-20T00:50:13;1.98;;;1.88;;
14292;SDS011;62290;59.420;17.842;2023-08-20T00:52:41;1.90;;;1.80;;
14292;SDS011;62290;59.420;17.842;2023-08-20T00:55:10;3.88;;;1.92;;
14292;SDS011;62290;59.420;17.842;2023-08-20T00:57:40;1.70;;;1.60;;
14292;SDS011;62290;59.420;17.842;2023-08-20T01:00:09;1.98;;;1.77;;
14292;SDS011;62290;59.420;17.842;2023-08-20T01:02:39;2.00;;;1.77;;
14292;SDS011;62290;59.420;17.842;2023-08-20T01:05:11;1.83;;;1.50;;
14292;SDS011;62290;59.420;17.842;2023-08-20T01:07:43;2.25;;;1.65;;
14292;SDS011;62290;59.420;17.842;2023-08-20T01:10:28;2.60;;;1.90;;
14292;SDS011;62290;59.420;17.842;2023-08-20T01:13:02;3.10;;;1.77;;
14292;SDS011;62290;59.420;17.842;2023-08-20T01:15:30;3.67;;;1.58;;
14292;SDS011;62290;59.420;17.842;2023-08-20T01:18:00;2.65;;;1.90;;
14292;SDS011;62290;59.420;17.842;2023-08-20T01:20:30;2.33;;;1.75;;
14292;SDS011;62290;59.420;17.842;2023-08-20T01:23:17;2.88;;;1.90;;
14292;SDS011;62290;59.420;17.842;2023-08-20T01:26:06;3.22;;;1.70;;
14292;SDS011;62290;59.420;17.842;2023-08-20T01:28:44;1.52;;;1.42;;
14292;SDS011;62290;59.420;17.842;2023-08-20T01:31:13;2.45;;;1.90;;
14292;SDS011;62290;59.420;17.842;2023-08-20T01:33:43;2.67;;;1.50;;
14292;SDS011;62290;59.420;17.842;2023-08-20T01:36:13;1.70;;;1.60;;
14292;SDS011;62290;59.420;17.842;2023-08-20T01:38:41;2.00;;;1.80;;
14292;SDS011;62290;59.420;17.842;2023-08-20T01:41:09;1.67;;;1.35;;
14292;SDS011;62290;59.420;17.842;2023-08-20T01:43:37;2.17;;;1.70;;
14292;SDS011;62290;59.420;17.842;2023-08-20T01:46:07;2.40;;;1.83;;
14292;SDS011;62290;59.420;17.842;2023-08-20T01:48:36;2.70;;;1.60;;
14292;SDS011;62290;59.420;17.842;2023-08-20T01:51:04;1.65;;;1.55;;
14292;SDS011;62290;59.420;17.842;2023-08-20T01:53:32;2.30;;;1.38;;
14292;SDS011;62290;59.420;17.842;2023-08-20T01:56:00;1.80;;;1.50;;
14292;SDS011;62290;59.420;17.842;2023-08-20T01:58:29;1.75;;;1.30;;
14292;SDS011;62290;59.420;17.842;2023-08-20T02:00:58;3.85;;;1.63;;
14292;SDS011;62290;59.420;17.842;2023-08-20T02:03:31;1.77;;;1.50;;
14292;SDS011;62290;59.420;17.842;2023-08-20T02:05:59;3.13;;;2.03;;
14292;SDS011;62290;59.420;17.842;2023-08-20T02:08:27;2.30;;;1.90;;
14292;SDS011;62290;59.420;17.842;2023-08-20T02:10:59;2.97;;;1.88;;
14292;SDS011;62290;59.420;17.842;2023-08-20T02:13:28;3.42;;;1.83;;
14292;SDS011;62290;59.420;17.842;2023-08-20T02:16:00;2.15;;;1.58;;
14292;SDS011;62290;59.420;17.842;2023-08-20T02:18:28;3.63;;;1.45;;
14292;SDS011;62290;59.420;17.842;2023-08-20T02:20:58;1.83;;;1.35;;
14292;SDS011;62290;59.420;17.842;2023-08-20T02:23:26;2.13;;;1.63;;
14292;SDS011;62290;59.420;17.842;2023-08-20T02:25:54;2.28;;;1.45;;
14292;SDS011;62290;59.420;17.842;2023-08-20T02:28:22;1.95;;;1.48;;
14292;SDS011;62290;59.420;17.842;2023-08-20T02:30:51;2.28;;;1.40;;
14292;SDS011;62290;59.420;17.842;2023-08-20T02:33:19;2.47;;;1.63;;
14292;SDS011;62290;59.420;17.842;2023-08-20T02:35:47;1.98;;;1.50;;
14292;SDS011;62290;59.420;17.842;2023-08-20T02:38:16;1.65;;;1.52;;
14292;SDS011;62290;59.420;17.842;2023-08-20T02:40:44;2.35;;;1.63;;
14292;SDS011;62290;59.420;17.842;2023-08-20T02:43:12;2.65;;;1.77;;
14292;SDS011;62290;59.420;17.842;2023-08-20T02:45:41;2.28;;;1.45;;
14292;SDS011;62290;59.420;17.842;2023-08-20T02:48:10;2.40;;;1.60;;
14292;SDS011;62290;59.420;17.842;2023-08-20T02:50:38;2.00;;;1.38;;
14292;SDS011;62290;59.420;17.842;2023-08-20T02:53:05;2.85;;;1.55;;
14292;SDS011;62290;59.420;17.842;2023-08-20T02:55:35;1.70;;;1.35;;
14292;SDS011;62290;59.420;17.842;2023-08-20T02:58:03;2.33;;;1.73;;
14292;SDS011;62290;59.420;17.842;2023-08-20T03:00:34;2.85;;;1.73;;
14292;SDS011;62290;59.420;17.842;2023-08-20T03:03:04;1.75;;;1.65;;
14292;SDS011;62290;59.420;17.842;2023-08-20T03:05:36;2.28;;;2.08;;
14292;SDS011;62290;59.420;17.842;2023-08-20T03:08:04;1.70;;;1.58;;
14292;SDS011;62290;59.420;17.842;2023-08-20T03:10:34;1.70;;;1.60;;
14292;SDS011;62290;59.420;17.842;2023-08-20T03:13:03;1.40;;;1.25;;
14292;SDS011;62290;59.420;17.842;2023-08-20T03:15:32;5.20;;;1.90;;
14292;SDS011;62290;59.420;17.842;2023-08-20T03:18:00;1.92;;;1.70;;
14292;SDS011;62290;59.420;17.842;2023-08-20T03:20:28;1.73;;;1.52;;
14292;SDS011;62290;59.420;17.842;2023-08-20T03:22:57;2.08;;;1.60;;
14292;SDS011;62290;59.420;17.842;2023-08-20T03:25:25;2.42;;;1.75;;
14292;SDS011;62290;59.420;17.842;2023-08-20T03:27:55;2.15;;;1.50;;
14292;SDS011;62290;59.420;17.842;2023-08-20T03:30:23;1.33;;;1.23;;
14292;SDS011;62290;59.420;17.842;2023-08-20T03:32:51;1.77;;;1.50;;
14292;SDS011;62290;59.420;17.842;2023-08-20T03:35:20;3.42;;;1.75;;
14292;SDS011;62290;59.420;17.842;2023-08-20T03:37:48;2.20;;;1.40;;
14292;SDS011;62290;59.420;17.842;2023-08-20T03:40:16;2.33;;;1.35;;
14292;SDS011;62290;59.420;17.842;2023-08-20T03:42:44;2.22;;;1.70;;
14292;SDS011;62290;59.420;17.842;2023-08-20T03:45:14;2.28;;;1.33;;
14292;SDS011;62290;59.420;17.842;2023-08-20T03:47:42;1.80;;;1.50;;
14292;SDS011;62290;59.420;17.842;2023-08-20T03:50:13;3.83;;;1.60;;
14292;SDS011;62290;59.420;17.842;2023-08-20T03:52:41;2.33;;;1.52;;
14292;SDS011;62290;59.420;17.842;2023-08-20T03:55:10;1.50;;;1.40;;
14292;SDS011;62290;59.420;17.842;2023-08-20T03:57:38;1.98;;;1.60;;
14292;SDS011;62290;59.420;17.842;2023-08-20T04:00:06;2.85;;;1.67;;
14292;SDS011;62290;59.420;17.842;2023-08-20T04:02:45;1.60;;;1.35;;
14292;SDS011;62290;59.420;17.842;2023-08-20T04:05:13;2.10;;;1.40;;
14292;SDS011;62290;59.420;17.842;2023-08-20T04:07:41;4.32;;;1.77;;
14292;SDS011;62290;59.420;17.842;2023-08-20T04:10:09;1.77;;;1.42;;
14292;SDS011;62290;59.420;17.842;2023-08-20T04:12:37;1.98;;;1.52;;
14292;SDS011;62290;59.420;17.842;2023-08-20T04:15:06;2.30;;;1.50;;
14292;SDS011;62290;59.420;17.842;2023-08-20T04:17:34;2.13;;;1.50;;
14292;SDS011;62290;59.420;17.842;2023-08-20T04:20:05;1.52;;;1.30;;
14292;SDS011;62290;59.420;17.842;2023-08-20T04:22:35;3.25;;;1.52;;
14292;SDS011;62290;59.420;17.842;2023-08-20T04:25:05;1.40;;;1.30;;
14292;SDS011;62290;59.420;17.842;2023-08-20T04:27:34;2.10;;;1.25;;
14292;SDS011;62290;59.420;17.842;2023-08-20T04:30:03;1.40;;;1.30;;
14292;SDS011;62290;59.420;17.842;2023-08-20T04:32:33;1.50;;;1.40;;
14292;SDS011;62290;59.420;17.842;2023-08-20T04:35:01;2.67;;;1.40;;
14292;SDS011;62290;59.420;17.842;2023-08-20T04:37:30;1.58;;;1.20;;
14292;SDS011;62290;59.420;17.842;2023-08-20T04:39:59;2.85;;;1.45;;
14292;SDS011;62290;59.420;17.842;2023-08-20T04:42:28;2.88;;;1.40;;
14292;SDS011;62290;59.420;17.842;2023-08-20T04:44:56;1.40;;;1.30;;
14292;SDS011;62290;59.420;17.842;2023-08-20T04:47:25;2.75;;;1.38;;
14292;SDS011;62290;59.420;17.842;2023-08-20T04:49:53;1.67;;;1.40;;
14292;SDS011;62290;59.420;17.842;2023-08-20T04:52:22;2.30;;;1.40;;
14292;SDS011;62290;59.420;17.842;2023-08-20T04:54:51;2.35;;;1.50;;
14292;SDS011;62290;59.420;17.842;2023-08-20T04:57:20;1.42;;;1.33;;
14292;SDS011;62290;59.420;17.842;2023-08-20T04:59:49;1.92;;;1.52;;
14292;SDS011;62290;59.420;17.842;2023-08-20T05:02:17;1.70;;;1.58;;
14292;SDS011;62290;59.420;17.842;2023-08-20T05:04:51;1.75;;;1.63;;
14292;SDS011;62290;59.420;17.842;2023-08-20T05:07:19;2.85;;;2.20;;
14292;SDS011;62290;59.420;17.842;2023-08-20T05:09:49;1.75;;;1.65;;
14292;SDS011;62290;59.420;17.842;2023-08-20T05:12:19;2.38;;;1.30;;
14292;SDS011;62290;59.420;17.842;2023-08-20T05:14:48;1.52;;;1.42;;
14292;SDS011;62290;59.420;17.842;2023-08-20T05:17:16;1.40;;;1.30;;
14292;SDS011;62290;59.420;17.842;2023-08-20T05:19:44;2.75;;;1.48;;
14292;SDS011;62290;59.420;17.842;2023-08-20T05:22:12;1.88;;;1.42;;
14292;SDS011;62290;59.420;17.842;2023-08-20T05:24:40;1.98;;;1.30;;
14292;SDS011;62290;59.420;17.842;2023-08-20T05:27:08;2.00;;;1.50;;
14292;SDS011;62290;59.420;17.842;2023-08-20T05:29:45;1.40;;;1.30;;
14292;SDS011;62290;59.420;17.842;2023-08-20T05:32:14;1.40;;;1.27;;
14292;SDS011;62290;59.420;17.842;2023-08-20T05:34:43;2.78;;;1.10;;
14292;SDS011;62290;59.420;17.842;2023-08-20T05:37:11;2.70;;;1.40;;
14292;SDS011;62290;59.420;17.842;2023-08-20T05:39:40;1.42;;;1.08;;
14292;SDS011;62290;59.420;17.842;2023-08-20T05:42:09;2.20;;;1.85;;
14292;SDS011;62290;59.420;17.842;2023-08-20T05:44:42;1.80;;;1.23;;
14292;SDS011;62290;59.420;17.842;2023-08-20T05:47:15;1.50;;;1.40;;
14292;SDS011;62290;59.420;17.842;2023-08-20T05:49:43;1.88;;;1.40;;
14292;SDS011;62290;59.420;17.842;2023-08-20T05:52:12;2.10;;;1.48;;
14292;SDS011;62290;59.420;17.842;2023-08-20T05:54:41;1.80;;;1.35;;
14292;SDS011;62290;59.420;17.842;2023-08-20T05:57:10;4.30;;;1.48;;
14292;SDS011;62290;59.420;17.842;2023-08-20T05:59:37;1.20;;;1.00;;
14292;SDS011;62290;59.420;17.842;2023-08-20T06:02:05;1.25;;;1.08;;
14292;SDS011;62290;59.420;17.842;2023-08-20T06:04:35;1.38;;;1.10;;
14292;SDS011;62290;59.420;17.842;2023-08-20T06:07:03;1.25;;;1.05;;
14292;SDS011;62290;59.420;17.842;2023-08-20T06:09:31;1.88;;;1.10;;
14292;SDS011;62290;59.420;17.842;2023-08-20T06:11:59;4.97;;;1.45;;
14292;SDS011;62290;59.420;17.842;2023-08-20T06:14:27;1.60;;;1.50;;
14292;SDS011;62290;59.420;17.842;2023-08-20T06:16:55;1.13;;;1.00;;
14292;SDS011;62290;59.420;17.842;2023-08-20T06:19:23;1.77;;;1.67;;
14292;SDS011;62290;59.420;17.842;2023-08-20T06:21:53;1.83;;;1.42;;
14292;SDS011;62290;59.420;17.842;2023-08-20T06:24:21;1.42;;;1.30;;
14292;SDS011;62290;59.420;17.842;2023-08-20T06:26:49;1.20;;;1.10;;
14292;SDS011;62290;59.420;17.842;2023-08-20T06:29:17;2.55;;;1.20;;
14292;SDS011;62290;59.420;17.842;2023-08-20T06:31:45;1.27;;;1.08;;
14292;SDS011;62290;59.420;17.842;2023-08-20T06:34:13;1.75;;;0.88;;
14292;SDS011;62290;59.420;17.842;2023-08-20T06:36:41;2.60;;;1.30;;
14292;SDS011;62290;59.420;17.842;2023-08-20T06:39:11;2.22;;;1.00;;
14292;SDS011;62290;59.420;17.842;2023-08-20T06:41:39;1.52;;;1.23;;
14292;SDS011;62290;59.420;17.842;2023-08-20T06:44:18;1.30;;;1.20;;
14292;SDS011;62290;59.420;17.842;2023-08-20T06:46:46;1.63;;;1.17;;
14292;SDS011;62290;59.420;17.842;2023-08-20T06:49:14;3.08;;;1.17;;
14292;SDS011;62290;59.420;17.842;2023-08-20T06:51:42;1.17;;;0.90;;
14292;SDS011;62290;59.420;17.842;2023-08-20T06:54:11;1.50;;;1.02;;
14292;SDS011;62290;59.420;17.842;2023-08-20T06:56:40;0.98;;;0.90;;
14292;SDS011;62290;59.420;17.842;2023-08-20T06:59:08;1.30;;;1.17;;
14292;SDS011;62290;59.420;17.842;2023-08-20T07:01:36;1.20;;;1.08;;
14292;SDS011;62290;59.420;17.842;2023-08-20T07:04:05;1.80;;;1.45;;
14292;SDS011;62290;59.420;17.842;2023-08-20T07:06:33;1.52;;;1.00;;
14292;SDS011;62290;59.420;17.842;2023-08-20T07:09:01;1.33;;;1.02;;
14292;SDS011;62290;59.420;17.842;2023-08-20T07:11:31;1.30;;;1.20;;
14292;SDS011;62290;59.420;17.842;2023-08-20T07:13:59;1.80;;;1.00;;
14292;SDS011;62290;59.420;17.842;2023-08-20T07:16:27;1.05;;;0.90;;
14292;SDS011;62290;59.420;17.842;2023-08-20T07:18:55;0.82;;;0.77;;
14292;SDS011;62290;59.420;17.842;2023-08-20T07:21:23;1.40;;;0.90;;
14292;SDS011;62290;59.420;17.842;2023-08-20T07:23:51;1.02;;;0.88;;
14292;SDS011;62290;59.420;17.842;2023-08-20T07:26:20;1.23;;;1.15;;
14292;SDS011;62290;59.420;17.842;2023-08-20T07:28:49;2.10;;;1.00;;
14292;SDS011;62290;59.420;17.842;2023-08-20T07:31:26;1.10;;;1.00;;
14292;SDS011;62290;59.420;17.842;2023-08-20T07:33:56;2.25;;;1.00;;
14292;SDS011;62290;59.420;17.842;2023-08-20T07:36:30;2.47;;;1.10;;
14292;SDS011;62290;59.420;17.842;2023-08-20T07:38:59;5.28;;;1.40;;
14292;SDS011;62290;59.420;17.842;2023-08-20T07:41:28;2.85;;;0.80;;
14292;SDS011;62290;59.420;17.842;2023-08-20T07:43:58;1.50;;;1.10;;
14292;SDS011;62290;59.420;17.842;2023-08-20T07:46:26;0.70;;;0.70;;
14292;SDS011;62290;59.420;17.842;2023-08-20T07:48:54;1.48;;;0.90;;
14292;SDS011;62290;59.420;17.842;2023-08-20T07:51:22;0.80;;;0.65;;
14292;SDS011;62290;59.420;17.842;2023-08-20T07:53:50;1.00;;;0.90;;
14292;SDS011;62290;59.420;17.842;2023-08-20T07:56:18;1.20;;;0.90;;
14292;SDS011;62290;59.420;17.842;2023-08-20T07:58:46;1.80;;;0.90;;
14292;SDS011;62290;59.420;17.842;2023-08-20T08:01:16;1.35;;;0.90;;
14292;SDS011;62290;59.420;17.842;2023-08-20T08:03:44;1.10;;;1.00;;
14292;SDS011;62290;59.420;17.842;2023-08-20T08:06:12;9.98;;;0.80;;
14292;SDS011;62290;59.420;17.842;2023-08-20T08:08:42;1.35;;;0.70;;
14292;SDS011;62290;59.420;17.842;2023-08-20T08:11:11;1.20;;;1.10;;
14292;SDS011;62290;59.420;17.842;2023-08-20T08:13:39;4.78;;;1.27;;
14292;SDS011;62290;59.420;17.842;2023-08-20T08:16:07;1.85;;;1.00;;
14292;SDS011;62290;59.420;17.842;2023-08-20T08:18:37;0.90;;;0.90;;
14292;SDS011;62290;59.420;17.842;2023-08-20T08:21:05;1.55;;;0.95;;
14292;SDS011;62290;59.420;17.842;2023-08-20T08:23:33;1.95;;;1.13;;
14292;SDS011;62290;59.420;17.842;2023-08-20T08:26:01;1.33;;;1.10;;
14292;SDS011;62290;59.420;17.842;2023-08-20T08:28:29;0.77;;;0.70;;
14292;SDS011;62290;59.420;17.842;2023-08-20T08:30:57;1.10;;;1.00;;
14292;SDS011;62290;59.420;17.842;2023-08-20T08:33:25;1.52;;;0.80;;
14292;SDS011;62290;59.420;17.842;2023-08-20T08:35:55;1.83;;;0.95;;
14292;SDS011;62290;59.420;17.842;2023-08-20T08:38:23;1.90;;;0.90;;
14292;SDS011;62290;59.420;17.842;2023-08-20T08:40:53;1.92;;;0.90;;
14292;SDS011;62290;59.420;17.842;2023-08-20T08:43:23;1.52;;;1.40;;
14292;SDS011;62290;59.420;17.842;2023-08-20T08:45:51;1.13;;;0.70;;
14292;SDS011;62290;59.420;17.842;2023-08-20T08:48:22;3.72;;;1.17;;
14292;SDS011;62290;59.420;17.842;2023-08-20T08:50:52;2.05;;;1.00;;
14292;SDS011;62290;59.420;17.842;2023-08-20T08:53:22;2.95;;;0.88;;
14292;SDS011;62290;59.420;17.842;2023-08-20T08:55:52;1.40;;;0.90;;
14292;SDS011;62290;59.420;17.842;2023-08-20T08:58:20;0.98;;;0.82;;
14292;SDS011;62290;59.420;17.842;2023-08-20T09:00:48;1.33;;;0.98;;
14292;SDS011;62290;59.420;17.842;2023-08-20T09:03:17;1.52;;;1.10;;
14292;SDS011;62290;59.420;17.842;2023-08-20T09:05:45;1.58;;;1.00;;
14292;SDS011;62290;59.420;17.842;2023-08-20T09:08:22;2.13;;;1.30;;
14292;SDS011;62290;59.420;17.842;2023-08-20T09:10:54;1.63;;;0.90;;
14292;SDS011;62290;59.420;17.842;2023-08-20T09:13:23;1.95;;;1.33;;
14292;SDS011;62290;59.420;17.842;2023-08-20T09:15:52;2.70;;;1.10;;
14292;SDS011;62290;59.420;17.842;2023-08-20T09:18:21;1.48;;;0.93;;
14292;SDS011;62290;59.420;17.842;2023-08-20T09:20:49;1.40;;;1.10;;
14292;SDS011;62290;59.420;17.842;2023-08-20T09:23:18;1.83;;;1.10;;
14292;SDS011;62290;59.420;17.842;2023-08-20T09:25:47;1.85;;;1.20;;
14292;SDS011;62290;59.420;17.842;2023-08-20T09:28:15;1.95;;;1.40;;
14292;SDS011;62290;59.420;17.842;2023-08-20T09:30:54;2.15;;;1.58;;
14292;SDS011;62290;59.420;17.842;2023-08-20T09:33:23;1.27;;;1.05;;
14292;SDS011;62290;59.420;17.842;2023-08-20T09:35:51;1.00;;;0.90;;
14292;SDS011;62290;59.420;17.842;2023-08-20T09:38:20;1.08;;;0.93;;
14292;SDS011;62290;59.420;17.842;2023-08-20T09:40:52;7.45;;;2.53;;
14292;SDS011;62290;59.420;17.842;2023-08-20T09:43:23;1.92;;;1.33;;
14292;SDS011;62290;59.420;17.842;2023-08-20T09:45:55;2.83;;;1.50;;
14292;SDS011;62290;59.420;17.842;2023-08-20T09:48:24;1.58;;;1.17;;
14292;SDS011;62290;59.420;17.842;2023-08-20T09:50:56;1.75;;;1.25;;
14292;SDS011;62290;59.420;17.842;2023-08-20T09:53:31;2.75;;;1.30;;
14292;SDS011;62290;59.420;17.842;2023-08-20T09:56:06;1.65;;;1.00;;
14292;SDS011;62290;59.420;17.842;2023-08-20T09:58:37;2.50;;;1.20;;
14292;SDS011;62290;59.420;17.842;2023-08-20T10:01:06;1.48;;;1.30;;
14292;SDS011;62290;59.420;17.842;2023-08-20T10:03:35;2.97;;;1.80;;
14292;SDS011;62290;59.420;17.842;2023-08-20T10:06:04;3.88;;;1.25;;
14292;SDS011;62290;59.420;17.842;2023-08-20T10:08:33;1.40;;;1.30;;
14292;SDS011;62290;59.420;17.842;2023-08-20T10:11:02;1.35;;;1.23;;
14292;SDS011;62290;59.420;17.842;2023-08-20T10:13:32;1.63;;;1.15;;
14292;SDS011;62290;59.420;17.842;2023-08-20T10:16:00;1.77;;;1.17;;
14292;SDS011;62290;59.420;17.842;2023-08-20T10:18:28;2.22;;;1.02;;
14292;SDS011;62290;59.420;17.842;2023-08-20T10:20:57;2.90;;;1.20;;
14292;SDS011;62290;59.420;17.842;2023-08-20T10:23:29;4.75;;;1.55;;
14292;SDS011;62290;59.420;17.842;2023-08-20T10:26:06;1.88;;;1.05;;
14292;SDS011;62290;59.420;17.842;2023-08-20T10:28:36;1.67;;;1.20;;
14292;SDS011;62290;59.420;17.842;2023-08-20T10:31:08;2.10;;;1.20;;
14292;SDS011;62290;59.420;17.842;2023-08-20T10:33:38;2.42;;;1.10;;
14292;SDS011;62290;59.420;17.842;2023-08-20T10:36:17;1.73;;;1.33;;
14292;SDS011;62290;59.420;17.842;2023-08-20T10:38:49;2.75;;;1.45;;
14292;SDS011;62290;59.420;17.842;2023-08-20T10:41:24;2.70;;;1.20;;
14292;SDS011;62290;59.420;17.842;2023-08-20T10:43:57;1.85;;;1.50;;
14292;SDS011;62290;59.420;17.842;2023-08-20T10:46:27;4.65;;;1.70;;
14292;SDS011;62290;59.420;17.842;2023-08-20T10:48:57;1.48;;;1.38;;
14292;SDS011;62290;59.420;17.842;2023-08-20T10:51:26;2.13;;;1.45;;
14292;SDS011;62290;59.420;17.842;2023-08-20T10:54:02;1.90;;;1.35;;
14292;SDS011;62290;59.420;17.842;2023-08-20T10:56:39;2.60;;;1.65;;
14292;SDS011;62290;59.420;17.842;2023-08-20T10:59:13;1.40;;;1.30;;
14292;SDS011;62290;59.420;17.842;2023-08-20T11:01:46;2.38;;;1.40;;
14292;SDS011;62290;59.420;17.842;2023-08-20T11:04:15;1.70;;;1.40;;
14292;SDS011;62290;59.420;17.842;2023-08-20T11:06:45;3.50;;;1.73;;
14292;SDS011;62290;59.420;17.842;2023-08-20T11:09:14;1.58;;;1.45;;
14292;SDS011;62290;59.420;17.842;2023-08-20T11:11:42;3.05;;;1.30;;
14292;SDS011;62290;59.420;17.842;2023-08-20T11:14:13;3.10;;;1.23;;
14292;SDS011;62290;59.420;17.842;2023-08-20T11:16:42;1.30;;;1.20;;
14292;SDS011;62290;59.420;17.842;2023-08-20T11:19:11;2.85;;;1.30;;
14292;SDS011;62290;59.420;17.842;2023-08-20T11:21:40;2.35;;;1.48;;
14292;SDS011;62290;59.420;17.842;2023-08-20T11:24:09;1.60;;;1.40;;
14292;SDS011;62290;59.420;17.842;2023-08-20T11:26:39;1.75;;;1.65;;
14292;SDS011;62290;59.420;17.842;2023-08-20T11:29:11;1.95;;;1.50;;
14292;SDS011;62290;59.420;17.842;2023-08-20T11:31:46;1.80;;;1.30;;
14292;SDS011;62290;59.420;17.842;2023-08-20T11:34:15;3.13;;;1.40;;
14292;SDS011;62290;59.420;17.842;2023-08-20T11:36:43;2.05;;;1.45;;
14292;SDS011;62290;59.420;17.842;2023-08-20T11:39:11;2.28;;;1.85;;
14292;SDS011;62290;59.420;17.842;2023-08-20T11:41:39;3.80;;;1.67;;
14292;SDS011;62290;59.420;17.842;2023-08-20T11:44:08;2.60;;;1.55;;
14292;SDS011;62290;59.420;17.842;2023-08-20T11:46:43;5.15;;;1.58;;
14292;SDS011;62290;59.420;17.842;2023-08-20T11:49:12;2.08;;;1.20;;
14292;SDS011;62290;59.420;17.842;2023-08-20T11:51:41;2.05;;;1.52;;
14292;SDS011;62290;59.420;17.842;2023-08-20T11:54:12;2.08;;;1.40;;
14292;SDS011;62290;59.420;17.842;2023-08-20T11:56:43;4.18;;;1.33;;
14292;SDS011;62290;59.420;17.842;2023-08-20T11:59:12;2.38;;;1.65;;
14292;SDS011;62290;59.420;17.842;2023-08-20T12:01:43;3.72;;;1.95;;
14292;SDS011;62290;59.420;17.842;2023-08-20T12:04:11;1.70;;;1.35;;
14292;SDS011;62290;59.420;17.842;2023-08-20T12:06:39;2.05;;;1.65;;
14292;SDS011;62290;59.420;17.842;2023-08-20T12:09:18;3.22;;;1.52;;
14292;SDS011;62290;59.420;17.842;2023-08-20T12:11:48;2.33;;;1.58;;
14292;SDS011;62290;59.420;17.842;2023-08-20T12:14:17;2.72;;;1.35;;
14292;SDS011;62290;59.420;17.842;2023-08-20T12:16:47;3.00;;;1.83;;
14292;SDS011;62290;59.420;17.842;2023-08-20T12:19:17;1.88;;;1.23;;
14292;SDS011;62290;59.420;17.842;2023-08-20T12:21:45;2.22;;;1.52;;
14292;SDS011;62290;59.420;17.842;2023-08-20T12:24:13;2.28;;;1.70;;
14292;SDS011;62290;59.420;17.842;2023-08-20T12:26:42;2.40;;;1.80;;
14292;SDS011;62290;59.420;17.842;2023-08-20T12:29:10;3.88;;;1.45;;
14292;SDS011;62290;59.420;17.842;2023-08-20T12:31:38;3.38;;;1.77;;
14292;SDS011;62290;59.420;17.842;2023-08-20T12:34:08;3.58;;;1.85;;
14292;SDS011;62290;59.420;17.842;2023-08-20T12:36:36;2.97;;;1.58;;
14292;SDS011;62290;59.420;17.842;2023-08-20T12:39:05;2.13;;;1.30;;
14292;SDS011;62290;59.420;17.842;2023-08-20T12:41:33;1.65;;;1.23;;
14292;SDS011;62290;59.420;17.842;2023-08-20T12:44:02;2.95;;;1.60;;
14292;SDS011;62290;59.420;17.842;2023-08-20T12:46:31;1.73;;;1.38;;
14292;SDS011;62290;59.420;17.842;2023-08-20T12:48:59;2.47;;;1.90;;
14292;SDS011;62290;59.420;17.842;2023-08-20T12:51:28;2.97;;;1.50;;
14292;SDS011;62290;59.420;17.842;2023-08-20T12:53:56;2.50;;;1.40;;
14292;SDS011;62290;59.420;17.842;2023-08-20T12:56:25;2.80;;;1.73;;
14292;SDS011;62290;59.420;17.842;2023-08-20T12:58:53;1.92;;;1.58;;
14292;SDS011;62290;59.420;17.842;2023-08-20T13:01:21;5.90;;;1.52;;
14292;SDS011;62290;59.420;17.842;2023-08-20T13:03:49;2.25;;;1.45;;
14292;SDS011;62290;59.420;17.842;2023-08-20T13:06:18;2.45;;;1.70;;
14292;SDS011;62290;59.420;17.842;2023-08-20T13:08:48;2.38;;;1.58;;
14292;SDS011;62290;59.420;17.842;2023-08-20T13:11:17;2.38;;;1.30;;
14292;SDS011;62290;59.420;17.842;2023-08-20T13:13:47;1.98;;;1.60;;
14292;SDS011;62290;59.420;17.842;2023-08-20T13:16:17;3.28;;;1.70;;
14292;SDS011;62290;59.420;17.842;2023-08-20T13:18:46;4.55;;;1.60;;
14292;SDS011;62290;59.420;17.842;2023-08-20T13:21:15;1.95;;;1.77;;
14292;SDS011;62290;59.420;17.842;2023-08-20T13:23:43;2.67;;;1.65;;
14292;SDS011;62290;59.420;17.842;2023-08-20T13:26:13;2.05;;;1.42;;
14292;SDS011;62290;59.420;17.842;2023-08-20T13:28:41;3.28;;;1.70;;
14292;SDS011;62290;59.420;17.842;2023-08-20T13:31:08;2.05;;;1.60;;
14292;SDS011;62290;59.420;17.842;2023-08-20T13:33:36;1.90;;;1.63;;
14292;SDS011;62290;59.420;17.842;2023-08-20T13:36:05;2.80;;;1.70;;
14292;SDS011;62290;59.420;17.842;2023-08-20T13:38:34;3.38;;;1.80;;
14292;SDS011;62290;59.420;17.842;2023-08-20T13:41:02;2.58;;;1.80;;
14292;SDS011;62290;59.420;17.842;2023-08-20T13:43:32;2.22;;;1.70;;
14292;SDS011;62290;59.420;17.842;2023-08-20T13:46:00;2.38;;;1.70;;
14292;SDS011;62290;59.420;17.842;2023-08-20T13:48:29;1.98;;;1.60;;
14292;SDS011;62290;59.420;17.842;2023-08-20T13:50:57;1.80;;;1.70;;
14292;SDS011;62290;59.420;17.842;2023-08-20T13:53:25;1.90;;;1.60;;
14292;SDS011;62290;59.420;17.842;2023-08-20T13:55:53;2.67;;;1.77;;
14292;SDS011;62290;59.420;17.842;2023-08-20T13:58:21;1.90;;;1.73;;
14292;SDS011;62290;59.420;17.842;2023-08-20T14:00:52;2.70;;;1.88;;
14292;SDS011;62290;59.420;17.842;2023-08-20T14:03:20;1.80;;;1.70;;
14292;SDS011;62290;59.420;17.842;2023-08-20T14:05:48;7.38;;;1.50;;
14292;SDS011;62290;59.420;17.842;2023-08-20T14:08:16;1.85;;;1.65;;
14292;SDS011;62290;59.420;17.842;2023-08-20T14:10:44;2.13;;;1.60;;
14292;SDS011;62290;59.420;17.842;2023-08-20T14:13:12;2.78;;;1.67;;
14292;SDS011;62290;59.420;17.842;2023-08-20T14:15:40;1.88;;;1.70;;
14292;SDS011;62290;59.420;17.842;2023-08-20T14:18:10;2.22;;;1.83;;
14292;SDS011;62290;59.420;17.842;2023-08-20T14:20:38;2.33;;;1.85;;
14292;SDS011;62290;59.420;17.842;2023-08-20T14:23:06;4.00;;;2.05;;
14292;SDS011;62290;59.420;17.842;2023-08-20T14:25:35;4.10;;;1.88;;
14292;SDS011;62290;59.420;17.842;2023-08-20T14:28:03;4.38;;;1.85;;
14292;SDS011;62290;59.420;17.842;2023-08-20T14:30:31;3.42;;;1.70;;
14292;SDS011;62290;59.420;17.842;2023-08-20T14:32:59;3.60;;;1.88;;
14292;SDS011;62290;59.420;17.842;2023-08-20T14:35:29;2.47;;;1.88;;
14292;SDS011;62290;59.420;17.842;2023-08-20T14:37:57;2.78;;;2.17;;
14292;SDS011;62290;59.420;17.842;2023-08-20T14:40:25;2.47;;;2.10;;
14292;SDS011;62290;59.420;17.842;2023-08-20T14:42:53;4.00;;;2.38;;
14292;SDS011;62290;59.420;17.842;2023-08-20T14:45:21;6.70;;;2.20;;